Eagle Kinabalu — 9V8779 — position and weather

sailwx.info

Track history (hours):
 
Tides and Currents Weather Stations Pressure Air Temp Water Temp Dewpoint Dewpoint Depression Visibility Wind Speed Wind Dir Waves Ship Positions

Eagle Kinabalu

Last reported at 2017-Nov-22 23:42 UTC. Time now 2017-Dec-13 14:40 UTC.
Position N 45°37' W 073°30'.
Warning: this ship's position is 20 days out of date.

Length 244 m; draft 9 m.

Type: Tanker. MMSI: 563326000.

Date/timePositionNaut miles runAvg speedWind from/ knotsBaromVisibWave heightAir tempDewpointWater temp
2017-Nov-22 23:42N 45°37' W 073°30'  
2017-Nov-14 11:24N 38°43' W 074°39'0 0.0
2017-Nov-14 10:39N 38°43' W 074°39'0 0.1
2017-Nov-14 10:27N 38°43' W 074°39'0 0.0
2017-Nov-14 10:00N 38°43' W 074°39'0 0.1
2017-Nov-14 09:21N 38°43' W 074°39'0 0.1
2017-Nov-14 09:00N 38°43' W 074°39'0 0.1
2017-Nov-14 08:27N 38°43' W 074°39'0 0.4
2017-Nov-14 08:00N 38°44' W 074°40'4 7.4
2017-Nov-14 07:30N 38°44' W 074°44'5 9.6
2017-Nov-14 07:00N 38°45' W 074°50'5 9.7
2017-Nov-14 06:30N 38°46' W 074°56'5 8.7
2017-Nov-14 05:57N 38°47' W 075°02'4 9.6
2017-Nov-14 05:30N 38°51' W 075°04'713.0
2017-Nov-14 05:00N 38°57' W 075°07'714.5
2017-Nov-14 04:30N 39°04' W 075°10'815.1
2017-Nov-14 04:00N 39°10' W 075°16'815.4
2017-Nov-14 03:31N 39°17' W 075°21'815.4
2017-Nov-14 03:01N 39°22' W 075°28'714.1
2017-Nov-14 02:30N 39°28' W 075°34'713.1
2017-Nov-14 02:00N 39°34' W 075°33'510.2
2017-Nov-14 01:30N 39°39' W 075°33'510.7
2017-Nov-14 01:00N 39°44' W 075°30'5 9.2
2017-Nov-14 00:30N 39°48' W 075°26'1 2.0
2017-Nov-14 00:01N 39°48' W 075°25'0 0.0
2017-Nov-13 23:30N 39°48' W 075°25'0 0.0
2017-Nov-13 23:00N 39°48' W 075°25'0 0.0
2017-Nov-13 22:30N 39°48' W 075°25'0 0.0
2017-Nov-13 22:00N 39°48' W 075°25'0 0.0
2017-Nov-13 02:00N 39°48' W 075°25'0 0.0
2017-Nov-13 01:30N 39°48' W 075°25'0 0.0
2017-Nov-13 01:00N 39°48' W 075°25'0 0.0
2017-Nov-13 00:30N 39°48' W 075°25'0 0.0
2017-Nov-13 00:00N 39°48' W 075°25'  
Track history (hours):
 
Tides and Currents Weather Stations Pressure Air Temp Water Temp Dewpoint Dewpoint Depression Visibility Wind Speed Wind Dir Waves Ship Positions

Eagle Kinabalu

Last reported at 2017-Nov-22 23:42 UTC. Time now 2017-Dec-13 14:40 UTC.
Position N 45°37' W 073°30'.
Warning: this ship's position is 20 days out of date.

Length 244 m; draft 9 m.

Type: Tanker. MMSI: 563326000.

Date/timePositionNaut miles runAvg speedWind from/ knotsBaromVisibWave heightAir tempDewpointWater temp
2017-Nov-22 23:42N 45°37' W 073°30'  
2017-Nov-14 11:24N 38°43' W 074°39'0 0.0
2017-Nov-14 10:39N 38°43' W 074°39'0 0.1
2017-Nov-14 10:27N 38°43' W 074°39'0 0.0
2017-Nov-14 10:00N 38°43' W 074°39'0 0.1
2017-Nov-14 09:21N 38°43' W 074°39'0 0.1
2017-Nov-14 09:00N 38°43' W 074°39'0 0.1
2017-Nov-14 08:27N 38°43' W 074°39'0 0.4
2017-Nov-14 08:00N 38°44' W 074°40'4 7.4
2017-Nov-14 07:30N 38°44' W 074°44'5 9.6
2017-Nov-14 07:00N 38°45' W 074°50'5 9.7
2017-Nov-14 06:30N 38°46' W 074°56'5 8.7
2017-Nov-14 05:57N 38°47' W 075°02'4 9.6
2017-Nov-14 05:30N 38°51' W 075°04'713.0
2017-Nov-14 05:00N 38°57' W 075°07'714.5
2017-Nov-14 04:30N 39°04' W 075°10'815.1
2017-Nov-14 04:00N 39°10' W 075°16'815.4
2017-Nov-14 03:31N 39°17' W 075°21'815.4
2017-Nov-14 03:01N 39°22' W 075°28'714.1
2017-Nov-14 02:30N 39°28' W 075°34'713.1
2017-Nov-14 02:00N 39°34' W 075°33'510.2
2017-Nov-14 01:30N 39°39' W 075°33'510.7
2017-Nov-14 01:00N 39°44' W 075°30'5 9.2
2017-Nov-14 00:30N 39°48' W 075°26'1 2.0
2017-Nov-14 00:01N 39°48' W 075°25'0 0.0
2017-Nov-13 23:30N 39°48' W 075°25'0 0.0
2017-Nov-13 23:00N 39°48' W 075°25'0 0.0
2017-Nov-13 22:30N 39°48' W 075°25'0 0.0
2017-Nov-13 22:00N 39°48' W 075°25'0 0.0
2017-Nov-13 02:00N 39°48' W 075°25'0 0.0
2017-Nov-13 01:30N 39°48' W 075°25'0 0.0
2017-Nov-13 01:00N 39°48' W 075°25'0 0.0
2017-Nov-13 00:30N 39°48' W 075°25'0 0.0
2017-Nov-13 00:00N 39°48' W 075°25'  

Dump ship's entire track history